1953 Tropical Low NOT_NAMED (1953079S15119)


IBTrACS version v04r00. Visit IBTrACS website for data access.
Please direct all questions to the IBTrACS Q and A forum

Storm track - Intensity - Wind Radii - Intensity Data - Source Data - All data

Summary Information

Storm ID 1953079S15119
Start Mar 19 23Z
Landfall Mar 22 18Z, Mar 24 11Z
Max Intensity 970 mb (Mar 22 01Z)
End Mar 25 01Z
ATCF IDs ,SH161953
Track status Best track data.

Storm track plot

Map of storm track

Intensity plots

Map of storm track

Radial wind information

No radial wind information for this storm


Position and Intensity Table

BASIN ISO_TIME_________ NATURE LAT LON WMO PRES BOM PRES
degrees north degrees east mb mb
SI 1953-03-19 23:00:00 NR -15.00 118.70
SI 1953-03-20 00:00:00 TS -15.08 118.59
SI 01:00:00 TS -15.12 118.64 1000 1000
SI 03:00:00 TS -15.26 118.44 999
SI 06:00:00 TS -15.49 118.16 999
SI 07:00:00 TS -15.56 118.14 999 999
SI 09:00:00 TS -15.71 117.90
SI 11:00:00 TS -15.86 117.65
SI 12:00:00 TS -15.94 117.49
SI 15:00:00 TS -16.18 116.98
SI 18:00:00 TS -16.42 116.49
SI 21:00:00 TS -16.61 116.11
SI 23:00:00 TS -16.74 115.90
SI 1953-03-21 00:00:00 TS -16.80 115.81
SI 01:00:00 TS -16.86 115.72 995 995
SI 03:00:00 TS -16.98 115.57 992
SI 06:00:00 TS -17.17 115.40 988
SI 07:00:00 TS -17.22 115.35 987 987
SI 09:00:00 TS -17.33 115.26
SI 11:00:00 TS -17.43 115.19
SI 12:00:00 TS -17.48 115.15
SI 15:00:00 TS -17.65 115.03
SI 18:00:00 TS -17.84 114.91
SI 21:00:00 TS -18.03 114.81
SI 23:00:00 TS -18.23 114.73
SI 1953-03-22 00:00:00 TS -18.37 114.67
SI 01:00:00 TS -18.54 114.59 970 970
SI 03:00:00 TS -18.95 114.41 970
SI 06:00:00 TS -19.68 114.13 970
SI 09:00:00 TS -20.47 113.91 970
SI 11:00:00 TS -21.02 113.81 970
SI 12:00:00 TS -21.29 113.79 970
SI 13:40:00 TS -21.73 113.80 970 970
SI 15:00:00 TS -22.09 113.83 970
SI 18:00:00 TS -22.87 113.95 970 970
SI 21:00:00 TS -23.64 114.06 974
SI 23:00:00 TS -24.11 114.13 977
SI 1953-03-23 00:00:00 TS -24.32 114.17 978
SI 01:00:00 TS -24.51 114.21 980 980
SI 03:00:00 TS -24.85 114.29
SI 06:00:00 TS -25.28 114.41
SI 07:00:00 TS -25.43 114.44
SI 09:00:00 TS -25.71 114.48
SI 11:00:00 TS -26.00 114.50
SI 12:00:00 TS -26.15 114.52
SI 15:00:00 TS -26.60 114.56
SI 18:00:00 TS -27.06 114.60
SI 21:00:00 TS -27.49 114.65
SI 23:00:00 TS -27.78 114.69
SI 1953-03-24 00:00:00 TS -27.94 114.71
SI 01:00:00 TS -28.10 114.73 998 998
SI 03:00:00 TS -28.43 114.77
SI 06:00:00 TS -28.92 114.84
SI 07:00:00 TS -29.07 114.86
SI 09:00:00 TS -29.36 114.91
SI 11:00:00 TS -29.63 114.97
SI 12:00:00 TS -29.77 115.03
SI 15:00:00 TS -30.18 115.21
SI 18:00:00 TS -30.60 115.42
SI 21:00:00 TS -31.01 115.66
SI 22:00:00 TS -31.15 115.74
SI 23:00:00 TS -31.32 115.80
SI 1953-03-25 00:00:00 TS -31.50 115.90
SI 01:00:00 NR -31.70 115.90 1004 1004

Source Information

Agency Information
USA bsh161953.txt
TOKYO
CMA
HKO
NEWDELHI
REUNION
BOM IDCKMSTM0S.csv:Line=1824:unnamed
NADI
WELLINGTON
DS824 s_hem.dat:605:16S
TD9636 cons_worldwide_trop_cyclone_18710101-19891231-006:Line=4015
TD9635
NEUMANN
MLC

All available IBTrACS Data

SEASON BASIN SUBBASIN ISO_TIME_________ NATURE LAT LON WMO PRES WMO AGENCY DIST2LAND LANDFALL IFLAG USA AGENCY USA ATCF_ID USA LAT USA LON USA SSHS BOM LAT BOM LON BOM PRES BOM PRES_METHOD DS824 LAT DS824 LON DS824 STAGE TD9636 LAT TD9636 LON TD9636 STAGE STORM SPEED STORM DIR
Year degrees north degrees east mb km km degrees north degrees east 1 degrees north degrees east mb degrees north degrees east degrees north degrees east kts degrees
1953 SI WA 1953-03-19 23:00:00 NR -15.00 118.70 450 450 __________O___ -1 -15.00 118.70 7 8 232
1953 SI WA 1953-03-20 00:00:00 TS -15.08 118.59 454 454 O________OP___ jtwc_sh SH161953 -15.10 118.60 -1 -15.10 118.60 TC -15.06 118.58 7 4 206
1953 SI WA 01:00:00 TS -15.12 118.64 1000 bom 454 448 P_____O__PP___ SH161953 -15.17 118.46 -1 -14.90 119.90 1000 -15.17 118.46 TC -15.12 118.47 7 5 220
1953 SI WA 03:00:00 TS -15.26 118.44 462 462 P_____P__PP___ SH161953 -15.30 118.18 -1 -15.14 119.61 999 -15.30 118.18 TC -15.25 118.23 7 7 232
1953 SI WA 06:00:00 TS -15.49 118.16 471 471 O_____P__OP___ jtwc_sh SH161953 -15.50 117.80 -1 -15.49 119.16 999 -15.50 117.80 TC -15.45 117.86 7 6 224
1953 SI WA 07:00:00 TS -15.56 118.14 999 bom 476 476 P_____O__PP___ SH161953 -15.56 117.69 -1 -15.60 119.00 999 -15.56 117.69 TC -15.51 117.74 7 7 227
1953 SI WA 09:00:00 TS -15.71 117.90 492 492 P_____P__PP___ SH161953 -15.69 117.46 -1 -15.80 118.66 -15.69 117.46 TC -15.65 117.48 7 8 238
1953 SI WA 11:00:00 TS -15.86 117.65 495 495 P_____P__PO___ SH161953 -15.83 117.23 -1 -15.98 118.30 -15.83 117.23 TC -15.80 117.20 7 9 240
1953 SI WA 12:00:00 TS -15.94 117.49 499 484 O_____P__OP___ jtwc_sh SH161953 -15.90 117.10 -1 -16.06 118.12 -15.90 117.10 TC -15.88 117.06 7 11 243
1953 SI WA 15:00:00 TS -16.18 116.98 484 470 P_____P__PP___ SH161953 -16.16 116.59 -1 -16.29 117.56 -16.16 116.59 TC -16.11 116.62 7 11 244
1953 SI WA 18:00:00 TS -16.42 116.49 470 450 O_____P__OP___ jtwc_sh SH161953 -16.40 116.10 -1 -16.50 117.02 -16.40 116.10 TC -16.35 116.19 7 9 243
1953 SI WA 21:00:00 TS -16.61 116.11 451 442 P_____P__PP___ SH161953 -16.56 115.80 -1 -16.71 116.53 -16.56 115.80 TC -16.57 115.81 7 8 241
1953 SI WA 23:00:00 TS -16.74 115.90 444 433 P_____P__PO___ SH161953 -16.66 115.66 -1 -16.85 116.24 -16.66 115.66 TC -16.70 115.60 7 7 237
1953 SI WA 1953-03-21 00:00:00 TS -16.80 115.81 435 435 O_____P__OP___ jtwc_sh SH161953 -16.70 115.60 -1 -16.92 116.12 -16.70 115.60 TC -16.75 115.52 7 6 234
1953 SI WA 01:00:00 TS -16.86 115.72 995 bom 427 419 P_____O__PP___ SH161953 -16.75 115.54 -1 -17.00 116.00 995 -16.75 115.54 TC -16.81 115.45 7 6 230
1953 SI WA 03:00:00 TS -16.98 115.57 419 404 P_____P__PP___ SH161953 -16.86 115.43 -1 -17.16 115.80 992 -16.86 115.43 TC -16.90 115.35 7 5 225
1953 SI WA 06:00:00 TS -17.17 115.40 404 404 O_____P__OP___ jtwc_sh SH161953 -17.00 115.30 -1 -17.41 115.57 988 -17.00 115.30 TC -17.02 115.23 7 5 222
1953 SI WA 07:00:00 TS -17.22 115.35 987 bom 404 397 P_____O__PP___ SH161953 -17.04 115.26 -1 -17.50 115.50 987 -17.04 115.26 TC -17.05 115.21 7 4 220
1953 SI WA 09:00:00 TS -17.33 115.26 397 391 P_____P__PP___ SH161953 -17.10 115.20 -1 -17.66 115.38 -17.10 115.20 TC -17.13 115.15 7 4 217
1953 SI WA 11:00:00 TS -17.43 115.19 391 380 P_____P__PO___ SH161953 -17.16 115.14 -1 -17.83 115.28 -17.16 115.14 TC -17.20 115.10 7 4 216
1953 SI WA 12:00:00 TS -17.48 115.15 385 375 O_____P__OP___ jtwc_sh SH161953 -17.20 115.10 -1 -17.92 115.24 -17.20 115.10 TC -17.21 115.07 7 4 214
1953 SI WA 15:00:00 TS -17.65 115.03 380 360 P_____P__PP___ SH161953 -17.34 114.96 -1 -18.18 115.14 -17.34 114.96 TC -17.21 114.97 7 4 212
1953 SI WA 18:00:00 TS -17.84 114.91 365 352 O_____P__OP___ jtwc_sh SH161953 -17.50 114.80 -1 -18.47 115.07 -17.50 114.80 TC -17.26 114.86 7 4 209
1953 SI WA 21:00:00 TS -18.03 114.81 352 334 P_____P__PP___ SH161953 -17.55 114.68 -1 -18.80 115.01 -17.55 114.68 TC -17.45 114.72 7 5 205
1953 SI WA 23:00:00 TS -18.23 114.73 340 330 P_____P__PO___ SH161953 -17.68 114.57 -1 -19.04 114.96 -17.68 114.57 TC -17.70 114.60 7 7 202
1953 SI WA 1953-03-22 00:00:00 TS -18.37 114.67 320 316 O_____P__OP___ jtwc_sh SH161953 -17.80 114.50 -1 -19.16 114.93 -17.80 114.50 TC -17.89 114.50 7 10 203
1953 SI WA 01:00:00 TS -18.54 114.59 970 bom 316 291 P_____O__PP___ SH161953 -17.98 114.40 -1 -19.30 114.90 970 4 -17.98 114.40 TC -18.10 114.39 7 13 203
1953 SI WA 03:00:00 TS -18.95 114.41 291 244 P_____P__PP___ SH161953 -18.47 114.16 -1 -19.55 114.80 970 -18.47 114.16 TC -18.61 114.15 7 15 201
1953 SI WA 06:00:00 TS -19.68 114.13 238 168 O_____P__OP___ jtwc_sh SH161953 -19.40 113.80 -1 -19.97 114.64 970 -19.40 113.80 TC -19.50 113.79 7 16 197
1953 SI WA 09:00:00 TS -20.47 113.91 156 102 P_____P__PP___ SH161953 -20.39 113.52 -1 -20.45 114.49 970 -20.39 113.52 TC -20.46 113.51 7 17 193
1953 SI WA 11:00:00 TS -21.02 113.81 102 80 P_____P__PO___ SH161953 -21.07 113.41 -1 -20.83 114.40 970 -21.07 113.41 TC -21.10 113.40 7 17 188
1953 SI WA 12:00:00 TS -21.29 113.79 70 30 O_____P__OP___ jtwc_sh SH161953 -21.40 113.40 -1 -21.03 114.36 970 -21.40 113.40 TC -21.40 113.40 7 16 182
1953 SI WA 13:40:00 TS -21.73 113.80 970 bom 30 15 P_____O__PP___ SH161953 -21.90 113.45 -1 -21.40 114.30 970 -21.90 113.45 TC -21.89 113.45 7 16 178
1953 SI WA 15:00:00 TS -22.09 113.83 10 0 P_____P__PP___ SH161953 -22.29 113.54 -1 -21.73 114.26 970 -22.29 113.54 TC -22.29 113.53 7 16 173
1953 SI WA 18:00:00 TS -22.87 113.95 970 bom 0 0 O_____O__OP___ jtwc_sh SH161953 -23.10 113.80 -1 -22.50 114.20 970 -23.10 113.80 TC -23.15 113.76 7 16 172
1953 SI WA 21:00:00 TS -23.64 114.06 0 0 P_____P__PP___ SH161953 -23.91 114.01 -1 -23.23 114.13 974 -23.91 114.01 TC -23.94 114.03 7 15 172
1953 SI WA 23:00:00 TS -24.11 114.13 0 0 P_____P__PO___ SH161953 -24.39 114.14 -1 -23.69 114.10 977 -24.39 114.14 TC -24.40 114.20 7 14 172
1953 SI WA 1953-03-23 00:00:00 TS -24.32 114.17 0 0 O_____P__OP___ jtwc_sh SH161953 -24.60 114.20 -1 -23.90 114.09 978 -24.60 114.20 TC -24.60 114.25 7 12 171
1953 SI WA 01:00:00 TS -24.51 114.21 980 bom 0 0 P_____O__PP___ SH161953 -24.79 114.26 -1 -24.10 114.10 980 -24.79 114.26 TC -24.79 114.30 7 11 168
1953 SI WA 03:00:00 TS -24.85 114.29 0 0 P_____P__PP___ SH161953 -25.10 114.37 -1 -24.46 114.15 -25.10 114.37 TC -25.12 114.38 7 10 167
1953 SI WA 06:00:00 TS -25.28 114.41 0 0 O_____P__OP___ jtwc_sh SH161953 -25.50 114.50 -1 -24.95 114.26 -25.50 114.50 TC -25.56 114.48 7 9 167
1953 SI WA 07:00:00 TS -25.43 114.44 bom 0 0 P_____O__PP___ SH161953 -25.64 114.53 -1 -25.10 114.30 -25.64 114.53 TC -25.69 114.51 7 9 173
1953 SI WA 09:00:00 TS -25.71 114.48 0 0 P_____P__PP___ SH161953 -25.90 114.57 -1 -25.43 114.34 -25.90 114.57 TC -25.94 114.56 7 9 175
1953 SI WA 11:00:00 TS -26.00 114.50 0 0 P_____P__PO___ SH161953 -26.16 114.59 -1 -25.75 114.36 -26.16 114.59 TC -26.20 114.60 7 9 174
1953 SI WA 12:00:00 TS -26.15 114.52 0 0 O_____P__OP___ jtwc_sh SH161953 -26.30 114.60 -1 -25.91 114.37 -26.30 114.60 TC -26.34 114.63 7 9 175
1953 SI WA 15:00:00 TS -26.60 114.56 0 0 P_____P__PP___ SH161953 -26.75 114.65 -1 -26.39 114.39 -26.75 114.65 TC -26.77 114.69 7 9 175
1953 SI WA 18:00:00 TS -27.06 114.60 0 0 O_____P__OP___ jtwc_sh SH161953 -27.20 114.70 -1 -26.87 114.41 -27.20 114.70 TC -27.19 114.75 7 9 175
1953 SI WA 21:00:00 TS -27.49 114.65 0 0 P_____P__PP___ SH161953 -27.59 114.76 -1 -27.35 114.46 -27.59 114.76 TC -27.61 114.78 7 9 174
1953 SI WA 23:00:00 TS -27.78 114.69 0 0 P_____P__PO___ SH161953 -27.86 114.79 -1 -27.67 114.52 -27.86 114.79 TC -27.90 114.80 7 9 172
1953 SI WA 1953-03-24 00:00:00 TS -27.94 114.71 0 0 O_____P__OP___ jtwc_sh SH161953 -28.00 114.80 -1 -27.84 114.55 -28.00 114.80 TC -28.05 114.80 7 9 175
1953 SI WA 01:00:00 TS -28.10 114.73 998 bom 0 0 P_____O__PP___ SH161953 -28.16 114.81 -1 -28.00 114.60 998 -28.16 114.81 TC -28.20 114.80 7 10 174
1953 SI WA 03:00:00 TS -28.43 114.77 0 0 P_____P__PP___ SH161953 -28.50 114.81 -1 -28.34 114.72 -28.50 114.81 TC -28.50 114.78 7 10 173
1953 SI WA 06:00:00 TS -28.92 114.84 0 0 O_____P__OP___ jtwc_sh SH161953 -29.00 114.80 -1 -28.84 114.93 -29.00 114.80 TC -28.96 114.77 7 10 173
1953 SI WA 07:00:00 TS -29.07 114.86 bom 0 0 P_____O__PP___ SH161953 -29.14 114.79 -1 -29.00 115.00 -29.14 114.79 TC -29.11 114.76 7 9 172
1953 SI WA 09:00:00 TS -29.36 114.91 9 0 P_____P__PP___ SH161953 -29.41 114.78 -1 -29.28 115.15 -29.41 114.78 TC -29.41 114.77 7 9 170
1953 SI WA 11:00:00 TS -29.63 114.97 0 0 P_____P__PO___ SH161953 -29.67 114.78 -1 -29.54 115.31 -29.67 114.78 TC -29.70 114.80 7 9 165
1953 SI WA 12:00:00 TS -29.77 115.03 0 0 O_____P__OP___ jtwc_sh SH161953 -29.80 114.80 -1 -29.67 115.38 -29.80 114.80 TC -29.84 114.82 7 9 159
1953 SI WA 15:00:00 TS -30.18 115.21 0 0 P_____P__PP___ SH161953 -30.24 114.92 -1 -30.04 115.60 -30.24 114.92 TC -30.26 114.93 7 9 158
1953 SI WA 18:00:00 TS -30.60 115.42 0 0 O_____P__OP___ jtwc_sh SH161953 -30.70 115.10 -1 -30.45 115.77 -30.70 115.10 TC -30.65 115.09 7 9 155
1953 SI WA 21:00:00 TS -31.01 115.66 0 0 ______P___P___ SH161953 -1 -30.92 115.88 TC -31.04 115.27 7 9 154
1953 SI WA 22:00:00 TS -31.15 115.74 bom 0 0 ______O___P___ SH161953 -1 -31.10 115.90 TC -31.17 115.33 7 10 159
1953 SI WA 23:00:00 TS -31.32 115.80 0 0 ______P___O___ SH161953 -1 -31.29 115.91 TC -31.30 115.40 7 11 157
1953 SI WA 1953-03-25 00:00:00 TS -31.50 115.90 0 0 ______P_______ -1 -31.49 115.91 7 12 167
1953 SI WA 01:00:00 NR -31.70 115.90 1004 bom 0 ______O_______ -1 -31.70 115.90 1004 7 12 187